Time;durP1;ratioP1;P1;durP2;ratioP2;P2;SDS_P1;SDS_P2;PMS_P1;PMS_P2;Temp;Humidity;BMP_temperature;BMP_pressure;BME280_temperature;BME280_humidity;BME280_pressure;Samples;Min_cycle;Max_cycle;Signal;HPM_P1;HPM_P2
2023/01/25 00:02:13;;;;;;;38.90;16.95;;;2.80;76.80;;;;;;5007996;28;20597;-81
2023/01/25 00:04:40;;;;;;;36.07;16.00;;;2.80;77.10;;;;;;5007813;28;20121;-81
2023/01/25 00:07:07;;;;;;;39.03;16.45;;;2.80;77.00;;;;;;5008356;28;20340;-81
2023/01/25 00:09:34;;;;;;;39.83;17.40;;;2.80;77.10;;;;;;5008579;28;20793;-81
2023/01/25 00:12:01;;;;;;;37.95;16.80;;;2.80;77.30;;;;;;4983536;28;20066;-81
2023/01/25 00:14:29;;;;;;;39.03;17.17;;;2.80;77.30;;;;;;4992459;28;20165;-81
2023/01/25 00:16:56;;;;;;;38.17;17.20;;;2.80;77.30;;;;;;4992021;28;20079;-81
2023/01/25 00:19:24;;;;;;;36.28;16.52;;;2.80;77.10;;;;;;5003537;28;20362;-81
2023/01/25 00:21:51;;;;;;;42.75;18.05;;;2.80;76.70;;;;;;5006130;28;20054;-81
2023/01/25 00:24:21;;;;;;;38.42;16.73;;;2.80;76.70;;;;;;5008776;28;20117;-81
2023/01/25 00:26:49;;;;;;;38.80;17.27;;;2.70;76.60;;;;;;4992381;28;20054;-81
2023/01/25 00:29:18;;;;;;;41.00;17.73;;;2.70;76.60;;;;;;5007081;28;20109;-81
2023/01/25 00:31:53;;;;;;;38.17;16.80;;;2.70;76.60;;;;;;5008920;28;20364;-81
2023/01/25 00:34:47;;;;;;;38.53;16.85;;;2.70;76.60;;;;;;5008782;28;20058;-80
2023/01/25 00:37:21;;;;;;;39.78;16.90;;;2.70;76.60;;;;;;4990026;28;20213;-81
2023/01/25 00:39:48;;;;;;;36.22;16.15;;;2.60;76.70;;;;;;5008083;28;20065;-81
2023/01/25 00:42:18;;;;;;;38.87;16.67;;;2.70;76.50;;;;;;4984777;28;20810;-81
2023/01/25 00:44:45;;;;;;;37.10;16.25;;;2.60;76.30;;;;;;5008412;28;20258;-82
2023/01/25 00:47:13;;;;;;;37.92;16.75;;;2.50;76.20;;;;;;5007601;28;20157;-81
2023/01/25 00:49:41;;;;;;;40.55;17.02;;;2.50;76.50;;;;;;5008142;28;20078;-81
2023/01/25 00:52:11;;;;;;;38.80;16.67;;;2.50;76.60;;;;;;4992344;28;20465;-81
2023/01/25 00:54:38;;;;;;;36.67;16.70;;;2.50;76.70;;;;;;5008306;28;20101;-81
2023/01/25 00:57:06;;;;;;;36.83;15.10;;;2.40;76.70;;;;;;5007958;28;20369;-81
2023/01/25 00:59:34;;;;;;;34.72;15.73;;;2.50;76.80;;;;;;5007849;28;20050;-81
2023/01/25 01:02:02;;;;;;;38.95;16.17;;;2.50;76.60;;;;;;5008062;28;20108;-81
2023/01/25 01:04:30;;;;;;;37.40;15.93;;;2.40;76.60;;;;;;5007067;28;20058;-81
2023/01/25 01:06:57;;;;;;;36.73;16.43;;;2.40;77.00;;;;;;5008108;28;20970;-81
2023/01/25 01:09:26;;;;;;;37.13;15.30;;;2.40;77.10;;;;;;4991444;28;20293;-81
2023/01/25 01:11:54;;;;;;;37.75;16.23;;;2.50;76.80;;;;;;5007964;28;20059;-81
2023/01/25 01:14:22;;;;;;;37.00;16.45;;;2.40;76.70;;;;;;5008223;28;20105;-81
2023/01/25 01:16:50;;;;;;;36.08;15.55;;;2.40;76.80;;;;;;5007628;28;20145;-80
2023/01/25 01:19:19;;;;;;;36.43;16.10;;;2.40;77.00;;;;;;4991694;28;20109;-81
2023/01/25 01:21:46;;;;;;;35.95;15.60;;;2.40;77.00;;;;;;5007002;28;20337;-81
2023/01/25 01:24:13;;;;;;;38.03;16.33;;;2.40;76.90;;;;;;4990993;28;20054;-81
2023/01/25 01:26:41;;;;;;;33.35;15.23;;;2.40;77.00;;;;;;4991287;28;20106;-81
2023/01/25 01:29:08;;;;;;;37.03;15.95;;;2.40;77.10;;;;;;4993477;28;20141;-80
2023/01/25 01:31:36;;;;;;;40.53;17.10;;;2.40;77.10;;;;;;4990202;28;20115;-81
2023/01/25 01:34:15;;;;;;;34.63;15.32;;;2.50;77.20;;;;;;4989770;28;21060;-81
2023/01/25 01:36:43;;;;;;;37.97;17.00;;;2.50;77.00;;;;;;5006283;28;20057;-81
2023/01/25 01:39:10;;;;;;;36.25;16.00;;;2.50;76.90;;;;;;5005379;28;20054;-81
2023/01/25 01:41:38;;;;;;;35.92;15.45;;;2.50;76.90;;;;;;5004818;28;20058;-81
2023/01/25 01:44:15;;;;;;;37.43;15.87;;;2.50;76.70;;;;;;5005335;28;20046;-81
2023/01/25 01:46:46;;;;;;;37.38;16.10;;;2.50;76.60;;;;;;4989719;28;20274;-81
2023/01/25 01:49:19;;;;;;;38.85;16.45;;;2.40;76.90;;;;;;4987861;28;20047;-81
2023/01/25 01:51:50;;;;;;;35.85;15.40;;;2.40;77.00;;;;;;4986548;28;20217;-81
2023/01/25 01:54:25;;;;;;;38.95;16.25;;;2.40;77.10;;;;;;4971959;28;20063;-81
2023/01/25 01:56:57;;;;;;;37.57;16.33;;;2.40;76.90;;;;;;5003711;28;20162;-81
2023/01/25 01:59:31;;;;;;;34.88;15.68;;;2.50;77.00;;;;;;5002831;28;20298;-81
2023/01/25 02:01:58;;;;;;;37.38;16.38;;;2.50;76.80;;;;;;4987958;28;20075;-81
2023/01/25 02:04:27;;;;;;;39.95;17.20;;;2.40;76.80;;;;;;5006427;28;20081;-81
2023/01/25 02:06:59;;;;;;;39.53;17.15;;;2.40;76.70;;;;;;4991078;28;20089;-81
2023/01/25 02:09:29;;;;;;;40.40;17.33;;;2.40;76.40;;;;;;5007114;28;20054;-80
2023/01/25 02:11:58;;;;;;;37.00;16.35;;;2.40;76.50;;;;;;4991372;28;20289;-81
2023/01/25 02:14:29;;;;;;;39.28;17.13;;;2.40;76.40;;;;;;5010740;28;20054;-81
2023/01/25 02:16:56;;;;;;;36.85;15.82;;;2.30;76.60;;;;;;5009737;28;20080;-80
2023/01/25 02:19:35;;;;;;;38.45;16.50;;;2.30;76.40;;;;;;4994295;28;20042;-82
2023/01/25 02:22:09;;;;;;;37.53;16.37;;;2.20;76.50;;;;;;5010688;28;20046;-81
2023/01/25 02:24:42;;;;;;;36.65;16.33;;;2.20;76.50;;;;;;4994619;28;20254;-82
2023/01/25 02:27:11;;;;;;;38.28;16.35;;;2.20;76.70;;;;;;4994159;28;20070;-83
2023/01/25 02:29:39;;;;;;;41.38;17.15;;;2.20;76.60;;;;;;5009834;28;20101;-81
2023/01/25 02:32:06;;;;;;;36.85;16.33;;;2.20;76.60;;;;;;4993151;28;20096;-81
2023/01/25 02:34:34;;;;;;;38.20;16.43;;;2.20;76.70;;;;;;4992781;28;20042;-81
2023/01/25 02:37:01;;;;;;;39.20;17.65;;;2.10;76.80;;;;;;5003361;28;20293;-81
2023/01/25 02:39:29;;;;;;;36.92;15.85;;;2.10;76.90;;;;;;4991594;28;20055;-81
2023/01/25 02:41:56;;;;;;;36.67;16.55;;;2.10;76.70;;;;;;5008977;28;20184;-81
2023/01/25 02:44:29;;;;;;;37.13;16.50;;;2.10;76.40;;;;;;5008076;28;20097;-81
2023/01/25 02:46:57;;;;;;;42.93;17.00;;;2.10;76.40;;;;;;5008752;28;20125;-81
2023/01/25 02:49:24;;;;;;;41.30;18.23;;;2.00;76.40;;;;;;4987402;28;20270;-81
2023/01/25 02:51:54;;;;;;;38.33;17.50;;;2.00;76.60;;;;;;4991360;28;20066;-81
2023/01/25 02:54:23;;;;;;;42.63;18.73;;;2.00;76.50;;;;;;4982482;28;20054;-81
2023/01/25 02:56:51;;;;;;;38.58;16.92;;;2.00;76.30;;;;;;4997655;28;20054;-81
2023/01/25 02:59:18;;;;;;;39.23;18.13;;;1.90;76.40;;;;;;4989822;28;20051;-81
2023/01/25 03:01:51;;;;;;;42.00;18.45;;;1.90;76.40;;;;;;4993745;28;20685;-81
2023/01/25 03:04:19;;;;;;;41.15;17.45;;;1.90;76.40;;;;;;4988974;28;20575;-81
2023/01/25 03:06:47;;;;;;;42.53;17.88;;;1.90;76.40;;;;;;4982499;28;20157;-81
2023/01/25 03:09:15;;;;;;;41.70;17.45;;;1.90;76.30;;;;;;4992415;28;20061;-81
2023/01/25 03:11:46;;;;;;;44.47;20.70;;;1.90;76.40;;;;;;5010121;28;20145;-81
2023/01/25 03:14:14;;;;;;;39.28;16.50;;;1.80;76.20;;;;;;5007984;28;20342;-81
2023/01/25 03:16:41;;;;;;;39.30;16.73;;;1.80;76.20;;;;;;4996968;28;20065;-81
2023/01/25 03:19:09;;;;;;;38.78;17.50;;;1.80;76.10;;;;;;4988086;28;20192;-81
2023/01/25 03:21:37;;;;;;;42.70;18.85;;;1.70;76.10;;;;;;4993616;28;20061;-81
2023/01/25 03:24:04;;;;;;;43.13;17.67;;;1.70;76.40;;;;;;4992551;28;20062;-81
2023/01/25 03:29:20;;;;;;;38.35;16.00;;;1.70;76.50;;;;;;4991913;28;20089;-82
2023/01/25 03:31:50;;;;;;;42.83;17.83;;;1.60;76.40;;;;;;5009279;28;20050;-81
2023/01/25 03:34:18;;;;;;;42.20;18.10;;;1.60;76.50;;;;;;5002967;28;20058;-81
2023/01/25 03:36:45;;;;;;;42.40;18.17;;;1.60;76.60;;;;;;5005898;28;20065;-81
2023/01/25 03:39:13;;;;;;;40.70;17.92;;;1.60;76.60;;;;;;4986319;28;20269;-81
2023/01/25 03:41:43;;;;;;;38.25;16.35;;;1.50;76.60;;;;;;4985292;28;20054;-81
2023/01/25 03:44:13;;;;;;;38.85;16.98;;;1.50;76.90;;;;;;4988556;28;20049;-81
2023/01/25 03:46:42;;;;;;;39.20;16.90;;;1.50;77.00;;;;;;5009488;28;20112;-81
2023/01/25 03:49:09;;;;;;;38.73;16.70;;;1.50;77.00;;;;;;4992530;28;20156;-81
2023/01/25 03:51:38;;;;;;;36.00;15.57;;;1.50;76.80;;;;;;4992824;28;20258;-81
2023/01/25 03:54:07;;;;;;;37.00;16.23;;;1.50;76.90;;;;;;4992724;28;20146;-81
2023/01/25 03:56:36;;;;;;;37.72;17.10;;;1.50;76.90;;;;;;5009822;28;20054;-81
2023/01/25 03:59:30;;;;;;;36.10;16.60;;;1.40;76.90;;;;;;5003850;28;20244;-81
2023/01/25 04:01:57;;;;;;;36.77;15.67;;;1.40;76.90;;;;;;4991558;28;20081;-81
2023/01/25 04:04:24;;;;;;;34.00;15.57;;;1.40;76.90;;;;;;5008924;28;20250;-81
2023/01/25 04:06:54;;;;;;;38.45;16.95;;;1.40;77.00;;;;;;4992152;28;20105;-81
2023/01/25 04:09:23;;;;;;;40.13;18.63;;;1.40;77.00;;;;;;5008815;28;20653;-81
2023/01/25 04:11:53;;;;;;;39.13;16.63;;;1.40;77.10;;;;;;5009126;28;20059;-81
2023/01/25 04:14:21;;;;;;;37.07;16.17;;;1.40;77.10;;;;;;5009060;28;20085;-81
2023/01/25 04:16:57;;;;;;;34.63;13.90;;;1.40;77.10;;;;;;5008584;28;20811;-81
2023/01/25 04:19:38;;;;;;;38.15;16.13;;;1.40;77.20;;;;;;5007423;28;20042;-81
2023/01/25 04:22:08;;;;;;;36.45;15.15;;;1.30;77.10;;;;;;5001169;28;20829;-82
2023/01/25 04:24:38;;;;;;;32.17;14.45;;;1.30;77.20;;;;;;4988144;28;20051;-82
2023/01/25 04:27:05;;;;;;;36.07;16.03;;;1.30;77.20;;;;;;4988160;28;20046;-81
2023/01/25 04:29:38;;;;;;;35.05;15.20;;;1.30;77.20;;;;;;4985801;28;20749;-81
2023/01/25 04:32:06;;;;;;;34.88;14.70;;;1.30;77.20;;;;;;4984589;28;20062;-81
2023/01/25 04:34:33;;;;;;;32.15;14.98;;;1.20;77.20;;;;;;4992186;28;20109;-82
2023/01/25 04:37:01;;;;;;;33.08;15.30;;;1.20;77.20;;;;;;4987479;28;20054;-81
2023/01/25 04:39:34;;;;;;;33.33;14.10;;;1.20;77.20;;;;;;4997873;28;21085;-81
2023/01/25 04:42:01;;;;;;;31.92;14.07;;;1.10;77.30;;;;;;4998968;28;20342;-81
2023/01/25 04:44:28;;;;;;;32.85;14.23;;;1.10;77.40;;;;;;4992060;28;20050;-81
2023/01/25 04:46:56;;;;;;;31.38;14.43;;;1.10;77.30;;;;;;4991922;28;20133;-81
2023/01/25 04:49:23;;;;;;;33.47;14.55;;;1.10;77.50;;;;;;5008106;28;20078;-81
2023/01/25 04:51:50;;;;;;;32.93;15.10;;;1.10;77.50;;;;;;4984030;28;20054;-81
2023/01/25 04:54:17;;;;;;;31.27;14.20;;;1.00;77.60;;;;;;5004845;28;20310;-81
2023/01/25 04:56:45;;;;;;;33.30;14.07;;;1.00;77.70;;;;;;4988254;28;20149;-81
2023/01/25 04:59:13;;;;;;;32.00;14.07;;;1.10;77.70;;;;;;4991670;28;20054;-81
2023/01/25 05:01:40;;;;;;;33.83;16.10;;;1.10;77.80;;;;;;4992103;28;20054;-81
2023/01/25 05:04:07;;;;;;;32.80;14.77;;;1.00;77.80;;;;;;5007867;28;20054;-82
2023/01/25 05:06:39;;;;;;;35.75;15.80;;;1.00;77.80;;;;;;5007649;28;20759;-81
2023/01/25 05:09:06;;;;;;;37.47;14.85;;;1.00;77.90;;;;;;4983679;28;20058;-82
2023/01/25 05:11:35;;;;;;;34.25;14.52;;;1.00;77.90;;;;;;5007354;28;20054;-81
2023/01/25 05:14:08;;;;;;;31.30;13.20;;;1.00;78.00;;;;;;5008141;28;20092;-81
2023/01/25 05:16:35;;;;;;;39.03;16.13;;;1.00;77.90;;;;;;4991623;28;20756;-81
2023/01/25 05:19:29;;;;;;;33.63;14.00;;;1.00;77.90;;;;;;4993331;28;20318;-81
2023/01/25 05:21:59;;;;;;;25.45;9.85;;;1.00;78.00;;;;;;4991594;28;20057;-81
2023/01/25 05:24:40;;;;;;;34.97;14.70;;;1.00;78.10;;;;;;4991669;28;20050;-81
2023/01/25 05:27:08;;;;;;;36.33;14.45;;;0.90;78.10;;;;;;4991636;28;20047;-81
2023/01/25 05:29:51;;;;;;;34.40;13.93;;;0.90;78.20;;;;;;4990103;28;20086;-81
2023/01/25 05:32:22;;;;;;;37.28;14.38;;;0.90;78.40;;;;;;5008023;28;20817;-81
2023/01/25 05:34:50;;;;;;;35.63;15.40;;;0.80;78.40;;;;;;5007798;28;20062;-82
2023/01/25 05:37:19;;;;;;;39.15;16.20;;;0.80;78.50;;;;;;4991594;28;20053;-81
2023/01/25 05:39:49;;;;;;;41.03;18.20;;;0.80;78.50;;;;;;4990969;28;20065;-81
2023/01/25 05:42:18;;;;;;;39.23;18.23;;;0.80;78.60;;;;;;4991088;28;20093;-81
2023/01/25 05:44:46;;;;;;;38.85;15.57;;;0.90;78.90;;;;;;4991453;28;20289;-81
2023/01/25 05:47:17;;;;;;;38.00;15.85;;;0.90;78.80;;;;;;4989892;28;20050;-81
2023/01/25 05:49:47;;;;;;;36.30;14.73;;;0.80;78.70;;;;;;4994294;28;20627;-81
2023/01/25 05:52:22;;;;;;;39.72;16.05;;;0.80;78.60;;;;;;4994807;28;20050;-81
2023/01/25 05:54:49;;;;;;;38.23;16.33;;;0.80;78.80;;;;;;5010684;28;20086;-81
2023/01/25 05:57:17;;;;;;;39.75;16.60;;;0.80;78.80;;;;;;4987146;28;20262;-82
2023/01/25 05:59:45;;;;;;;41.13;16.02;;;0.80;78.90;;;;;;4993548;28;20069;-82
2023/01/25 06:02:17;;;;;;;41.85;16.48;;;0.80;79.00;;;;;;4994879;28;20172;-81
2023/01/25 06:04:44;;;;;;;38.90;16.02;;;0.80;79.10;;;;;;4990905;28;20084;-81
2023/01/25 06:07:13;;;;;;;36.20;14.43;;;0.80;79.10;;;;;;5010990;28;20421;-81
2023/01/25 06:09:41;;;;;;;43.10;17.00;;;0.80;79.20;;;;;;4986823;28;20286;-81
2023/01/25 06:12:09;;;;;;;41.25;16.58;;;0.80;79.20;;;;;;4993929;28;20050;-81
2023/01/25 06:14:36;;;;;;;41.38;17.52;;;0.80;79.20;;;;;;4999492;28;20061;-81
2023/01/25 06:17:04;;;;;;;40.22;16.35;;;0.80;79.30;;;;;;4994477;28;20570;-81
2023/01/25 06:19:57;;;;;;;41.07;16.47;;;0.80;79.30;;;;;;4990521;28;20516;-81
2023/01/25 06:22:37;;;;;;;41.03;17.00;;;0.80;79.30;;;;;;5009835;28;20243;-81
2023/01/25 06:25:05;;;;;;;37.80;16.10;;;0.80;79.30;;;;;;5010981;28;20141;-81
2023/01/25 06:27:32;;;;;;;39.72;16.17;;;0.80;79.30;;;;;;5010601;28;20043;-81
2023/01/25 06:30:00;;;;;;;38.72;15.68;;;0.80;79.30;;;;;;5010197;28;20121;-81
2023/01/25 06:32:33;;;;;;;39.97;15.50;;;0.80;79.20;;;;;;5002247;28;20165;-81
2023/01/25 06:35:01;;;;;;;35.58;15.23;;;0.80;79.30;;;;;;5010402;28;20770;-81
2023/01/25 06:37:29;;;;;;;38.50;15.02;;;0.80;79.40;;;;;;4994163;28;20138;-81
2023/01/25 06:39:55;;;;;;;37.80;16.38;;;0.80;79.40;;;;;;4993232;28;20145;-81
2023/01/25 06:42:24;;;;;;;38.33;15.55;;;0.80;79.40;;;;;;5010456;28;20134;-81
2023/01/25 06:44:51;;;;;;;37.63;15.83;;;0.80;79.50;;;;;;4993790;28;20054;-81
2023/01/25 06:47:18;;;;;;;40.67;17.08;;;0.80;79.50;;;;;;5011795;28;20255;-81
2023/01/25 06:49:46;;;;;;;28.17;11.32;;;0.80;79.50;;;;;;5010250;28;20060;-81
2023/01/25 06:52:14;;;;;;;37.90;15.20;;;0.90;79.70;;;;;;5010431;28;20082;-81
2023/01/25 06:54:41;;;;;;;41.30;16.73;;;0.80;79.50;;;;;;5010310;28;20086;-81
2023/01/25 06:57:09;;;;;;;24.67;10.20;;;0.80;79.50;;;;;;4993469;28;20049;-81
2023/01/25 06:59:36;;;;;;;23.67;9.15;;;0.80;79.60;;;;;;5008957;28;20293;-81
2023/01/25 07:02:06;;;;;;;38.20;15.45;;;0.80;79.70;;;;;;5010222;28;20052;-81
2023/01/25 07:04:33;;;;;;;40.00;17.63;;;0.60;79.70;;;;;;5009924;28;20143;-81
2023/01/25 07:07:00;;;;;;;36.95;14.55;;;0.60;79.70;;;;;;4993837;28;20891;-81
2023/01/25 07:09:29;;;;;;;40.13;16.33;;;0.60;79.80;;;;;;5009770;28;20137;-81
2023/01/25 07:11:56;;;;;;;18.35;7.10;;;0.60;80.20;;;;;;5010054;28;20258;-81
2023/01/25 07:14:23;;;;;;;39.85;16.08;;;0.60;80.50;;;;;;5010063;28;20157;-81
2023/01/25 07:16:50;;;;;;;43.20;17.52;;;0.50;80.20;;;;;;4992866;28;20129;-81
2023/01/25 07:19:17;;;;;;;43.25;17.33;;;0.50;80.40;;;;;;5009619;28;20690;-81
2023/01/25 07:21:45;;;;;;;43.33;18.67;;;0.50;80.40;;;;;;5009487;28;20054;-82
2023/01/25 07:24:15;;;;;;;42.45;18.17;;;0.50;80.70;;;;;;4993419;28;20273;-81
2023/01/25 07:26:43;;;;;;;40.83;16.23;;;0.50;80.50;;;;;;5008963;28;20060;-81
2023/01/25 07:29:14;;;;;;;38.03;15.25;;;0.60;80.60;;;;;;5008283;28;20090;-81
2023/01/25 07:31:41;;;;;;;39.47;16.33;;;0.50;80.50;;;;;;5008657;28;20054;-81
2023/01/25 07:34:10;;;;;;;39.07;15.80;;;0.60;80.70;;;;;;5008259;28;20078;-81
2023/01/25 07:36:38;;;;;;;38.67;15.88;;;0.60;80.80;;;;;;5007313;28;20255;-81
2023/01/25 07:39:05;;;;;;;39.42;15.40;;;0.60;80.80;;;;;;5007187;28;20142;-81
2023/01/25 07:41:32;;;;;;;38.42;15.02;;;0.60;80.80;;;;;;5007572;28;20114;-81
2023/01/25 07:44:01;;;;;;;27.25;9.75;;;0.60;80.70;;;;;;5008647;28;20157;-80
2023/01/25 07:46:39;;;;;;;35.03;13.23;;;0.60;80.80;;;;;;5009299;28;20531;-81
2023/01/25 07:49:06;;;;;;;40.33;15.18;;;0.60;80.60;;;;;;5008035;28;20273;-81
2023/01/25 07:51:33;;;;;;;37.20;15.40;;;0.60;80.60;;;;;;5005084;28;20923;-81
2023/01/25 07:54:04;;;;;;;33.35;13.27;;;0.50;80.60;;;;;;5007671;28;20147;-81
2023/01/25 07:56:32;;;;;;;34.30;14.25;;;0.50;80.50;;;;;;5007198;28;20051;-81
2023/01/25 07:59:02;;;;;;;39.17;15.87;;;0.50;80.40;;;;;;4997862;28;20074;-81
2023/01/25 08:01:31;;;;;;;40.35;16.63;;;0.50;80.50;;;;;;5008473;28;20828;-80
2023/01/25 08:03:58;;;;;;;36.95;15.10;;;0.50;80.80;;;;;;5006931;28;20925;-81
2023/01/25 08:06:29;;;;;;;38.08;15.70;;;0.50;80.70;;;;;;5019140;28;20129;-81
2023/01/25 08:08:58;;;;;;;35.83;15.27;;;0.50;80.80;;;;;;5016003;28;20059;-80
2023/01/25 08:11:27;;;;;;;36.00;15.00;;;0.50;80.80;;;;;;5020740;28;20161;-81
2023/01/25 08:13:55;;;;;;;39.63;15.35;;;0.50;80.80;;;;;;5007237;28;20685;-81
2023/01/25 08:16:26;;;;;;;39.60;14.95;;;0.50;80.70;;;;;;5011656;28;20137;-81
2023/01/25 08:18:55;;;;;;;37.90;13.65;;;0.50;80.80;;;;;;5019396;28;20492;-81
2023/01/25 08:21:24;;;;;;;29.02;11.10;;;0.50;80.80;;;;;;5013898;28;20567;-81
2023/01/25 08:23:51;;;;;;;26.57;9.73;;;0.40;81.20;;;;;;5026896;28;20054;-80
2023/01/25 08:26:18;;;;;;;38.25;15.73;;;0.40;81.20;;;;;;5008682;28;20332;-82
2023/01/25 08:28:45;;;;;;;34.97;12.13;;;0.40;81.60;;;;;;5017551;28;20058;-79
2023/01/25 08:31:14;;;;;;;25.75;8.98;;;0.30;81.50;;;;;;5002685;28;20137;-81
2023/01/25 08:33:45;;;;;;;26.65;12.00;;;0.30;81.50;;;;;;5006696;28;20173;-82
2023/01/25 08:36:13;;;;;;;36.00;14.17;;;0.30;82.20;;;;;;5006354;28;20057;-82
2023/01/25 08:38:40;;;;;;;38.67;14.75;;;0.20;82.20;;;;;;5007254;28;20286;-79
2023/01/25 08:41:10;;;;;;;38.67;16.42;;;0.20;81.90;;;;;;5004008;28;20057;-80
2023/01/25 08:43:38;;;;;;;42.15;16.25;;;0.20;82.10;;;;;;5007375;28;20222;-80
2023/01/25 08:46:05;;;;;;;36.65;14.85;;;0.20;82.20;;;;;;5013061;28;20525;-81
2023/01/25 08:48:33;;;;;;;37.87;14.43;;;0.20;82.10;;;;;;5008566;28;20127;-81
2023/01/25 08:51:02;;;;;;;39.75;15.43;;;0.20;82.00;;;;;;5009622;28;20256;-82
2023/01/25 08:53:29;;;;;;;38.60;15.35;;;0.20;82.30;;;;;;5000885;28;20178;-80
2023/01/25 08:55:57;;;;;;;37.80;14.88;;;0.30;82.10;;;;;;5005730;28;20066;-81
2023/01/25 08:58:24;;;;;;;36.85;13.98;;;0.30;82.00;;;;;;4985560;28;20053;-82
2023/01/25 09:00:51;;;;;;;41.47;16.50;;;0.30;82.20;;;;;;5007906;28;20042;-79
2023/01/25 09:03:18;;;;;;;38.08;14.45;;;0.30;82.00;;;;;;4993074;28;20356;-79
2023/01/25 09:05:45;;;;;;;37.92;14.23;;;0.30;81.80;;;;;;5007576;28;20145;-80
2023/01/25 09:08:14;;;;;;;37.88;14.55;;;0.30;81.90;;;;;;4991385;28;20113;-83
2023/01/25 09:10:41;;;;;;;40.70;15.32;;;0.30;81.90;;;;;;5009048;28;20940;-79
2023/01/25 09:13:07;;;;;;;31.67;12.63;;;0.30;81.90;;;;;;5008310;28;20161;-80
2023/01/25 09:15:35;;;;;;;37.22;14.63;;;0.30;81.80;;;;;;4990509;28;20832;-80
2023/01/25 09:18:02;;;;;;;35.10;13.27;;;0.30;81.90;;;;;;5004655;28;20157;-78
2023/01/25 09:20:29;;;;;;;34.33;13.82;;;0.30;81.90;;;;;;5008959;28;20078;-79
2023/01/25 09:22:56;;;;;;;36.85;15.65;;;0.30;81.90;;;;;;4985713;28;20619;-80
2023/01/25 09:25:24;;;;;;;36.83;14.10;;;0.30;82.20;;;;;;5007010;28;20072;-80
2023/01/25 09:27:52;;;;;;;36.97;14.23;;;0.30;82.10;;;;;;5007611;28;20345;-81
2023/01/25 09:30:19;;;;;;;36.60;15.75;;;0.30;82.00;;;;;;5005870;28;20105;-82
2023/01/25 09:32:51;;;;;;;38.10;14.27;;;0.30;82.00;;;;;;4991935;28;20042;-82
2023/01/25 09:35:18;;;;;;;34.53;14.05;;;0.30;82.10;;;;;;4998809;28;20062;-82
2023/01/25 09:37:45;;;;;;;36.20;14.60;;;0.30;82.10;;;;;;5007451;28;20165;-82
2023/01/25 09:40:20;;;;;;;35.25;14.93;;;0.30;82.10;;;;;;4981948;28;20344;-82
2023/01/25 09:43:04;;;;;;;35.70;13.43;;;0.30;82.20;;;;;;5002653;28;20678;-82
2023/01/25 09:45:33;;;;;;;36.83;14.40;;;0.30;82.30;;;;;;5004748;28;20055;-82
2023/01/25 09:48:09;;;;;;;36.53;14.05;;;0.30;82.50;;;;;;5006867;28;20046;-82
2023/01/25 09:50:41;;;;;;;29.37;11.60;;;0.30;82.50;;;;;;5005923;28;20050;-82
2023/01/25 09:53:32;;;;;;;34.78;13.88;;;0.30;82.40;;;;;;5006388;28;20269;-83
2023/01/25 09:56:02;;;;;;;33.47;12.13;;;0.20;82.40;;;;;;4990475;28;20050;-82
2023/01/25 09:58:36;;;;;;;31.58;11.82;;;0.20;82.50;;;;;;5006012;28;20057;-82
2023/01/25 10:01:19;;;;;;;35.17;14.20;;;0.30;82.90;;;;;;5005414;28;20270;-82
2023/01/25 10:03:54;;;;;;;33.43;13.33;;;0.20;83.20;;;;;;5003171;28;20059;-82
2023/01/25 10:06:27;;;;;;;36.47;15.65;;;0.20;83.30;;;;;;5012168;28;20278;-81
2023/01/25 10:09:00;;;;;;;13.55;5.20;;;0.20;83.10;;;;;;4998651;28;20122;-82
2023/01/25 10:11:30;;;;;;;21.23;8.77;;;0.20;83.20;;;;;;5006337;28;20890;-82
2023/01/25 10:14:00;;;;;;;25.50;8.70;;;0.10;83.10;;;;;;5005966;28;20078;-82
2023/01/25 10:16:31;;;;;;;34.90;13.30;;;0.10;83.30;;;;;;5001635;28;20061;-83
2023/01/25 10:19:12;;;;;;;34.67;11.65;;;0.00;83.20;;;;;;5004703;28;20357;-81
2023/01/25 10:21:43;;;;;;;40.30;16.10;;;0.00;83.60;;;;;;5004533;28;20054;-81
2023/01/25 10:24:40;;;;;;;40.72;15.55;;;0.00;83.60;;;;;;5005484;28;20113;-84
2023/01/25 10:27:19;;;;;;;35.55;14.05;;;0.00;83.80;;;;;;4988709;28;20050;-83
2023/01/25 10:29:49;;;;;;;21.07;7.60;;;0.00;83.60;;;;;;4983619;28;20061;-82
2023/01/25 10:32:22;;;;;;;32.03;11.38;;;0.00;84.00;;;;;;4980189;28;20253;-79
2023/01/25 10:34:50;;;;;;;23.48;9.55;;;0.00;83.70;;;;;;5009607;28;20058;-83
2023/01/25 10:37:21;;;;;;;27.50;10.25;;;0.00;84.10;;;;;;5005158;28;20130;-83
2023/01/25 10:39:54;;;;;;;40.15;16.60;;;0.00;85.20;;;;;;5005831;28;20051;-83
2023/01/25 10:42:25;;;;;;;17.57;6.37;;;0.00;84.60;;;;;;4991063;28;20054;-82
2023/01/25 10:44:54;;;;;;;38.58;13.93;;;0.00;84.50;;;;;;5004494;28;20361;-83
2023/01/25 10:47:26;;;;;;;40.78;15.27;;;0.00;84.40;;;;;;4993671;28;20074;-82
2023/01/25 10:49:55;;;;;;;42.70;16.52;;;0.00;84.40;;;;;;5008565;28;20137;-83
2023/01/25 10:52:24;;;;;;;41.65;15.32;;;0.00;84.50;;;;;;4992270;28;20057;-83
2023/01/25 10:55:11;;;;;;;41.53;14.63;;;0.00;84.60;;;;;;4993170;28;20574;-84
2023/01/25 10:57:42;;;;;;;40.20;14.48;;;0.10;84.40;;;;;;5008495;28;20369;-83
2023/01/25 11:00:24;;;;;;;27.13;10.75;;;0.10;84.50;;;;;;5004492;28;20054;-82
2023/01/25 11:02:52;;;;;;;20.48;8.25;;;0.20;84.90;;;;;;5005382;28;20061;-82
2023/01/25 11:05:29;;;;;;;37.67;14.45;;;0.10;85.00;;;;;;5001631;28;20058;-80
2023/01/25 11:07:57;;;;;;;36.40;13.03;;;0.10;84.60;;;;;;4989542;28;20141;-84
2023/01/25 11:10:33;;;;;;;26.88;8.95;;;0.10;84.90;;;;;;5005483;28;20270;-84
2023/01/25 11:13:28;;;;;;;40.28;13.88;;;0.10;85.00;;;;;;5005166;28;20056;-84
2023/01/25 11:16:16;;;;;;;21.27;8.25;;;0.10;84.90;;;;;;4937123;28;20118;-83
2023/01/25 11:18:51;;;;;;;38.13;12.63;;;0.10;85.00;;;;;;5007736;28;20058;-83
2023/01/25 11:21:22;;;;;;;39.17;14.33;;;0.00;84.60;;;;;;4997285;28;20496;-83
2023/01/25 11:24:02;;;;;;;42.35;15.68;;;0.00;84.60;;;;;;4987889;28;20260;-83
2023/01/25 11:26:30;;;;;;;37.40;14.52;;;0.00;84.80;;;;;;5002771;28;20169;-83
2023/01/25 11:29:12;;;;;;;37.97;13.75;;;0.00;84.70;;;;;;5005626;28;20571;-83
2023/01/25 11:31:45;;;;;;;38.80;14.32;;;0.00;84.70;;;;;;4990566;28;20607;-82
2023/01/25 11:34:15;;;;;;;36.80;12.53;;;0.00;84.60;;;;;;4994160;28;20057;-82
2023/01/25 11:36:57;;;;;;;43.17;16.73;;;0.10;84.90;;;;;;5007817;28;20357;-84
2023/01/25 11:39:38;;;;;;;41.05;13.88;;;0.10;85.00;;;;;;4987539;28;20509;-83
2023/01/25 11:42:16;;;;;;;43.40;15.02;;;0.20;84.90;;;;;;5008423;28;20058;-82
2023/01/25 11:45:14;;;;;;;45.17;16.88;;;0.10;84.80;;;;;;4991567;28;20053;-78
2023/01/25 11:47:55;;;;;;;42.63;15.73;;;0.20;85.00;;;;;;5005562;28;20545;-82
2023/01/25 11:50:30;;;;;;;42.38;15.30;;;0.20;84.90;;;;;;4981007;28;20827;-82
2023/01/25 11:53:22;;;;;;;39.00;13.35;;;0.20;84.80;;;;;;5005868;28;20073;-81
2023/01/25 11:55:55;;;;;;;41.00;15.43;;;0.20;84.80;;;;;;5017012;28;20131;-82
2023/01/25 11:58:39;;;;;;;42.17;16.08;;;0.10;84.70;;;;;;5010747;28;20129;-82
2023/01/25 12:01:15;;;;;;;39.53;14.27;;;0.20;84.80;;;;;;5006564;28;20050;-83
2023/01/25 12:04:20;;;;;;;41.42;13.45;;;0.20;85.00;;;;;;5007683;28;20356;-83
2023/01/25 12:06:59;;;;;;;42.10;15.10;;;0.20;85.00;;;;;;4991765;28;20052;-84
2023/01/25 12:09:49;;;;;;;43.55;15.00;;;0.20;85.00;;;;;;4988908;28;20110;-81
2023/01/25 12:12:24;;;;;;;41.08;14.13;;;0.20;85.00;;;;;;4985675;28;20105;-81
2023/01/25 12:15:10;;;;;;;40.77;13.43;;;0.20;85.00;;;;;;5008592;28;20113;-84
2023/01/25 12:17:51;;;;;;;41.58;13.07;;;0.20;84.90;;;;;;5005533;28;20763;-81
2023/01/25 12:20:31;;;;;;;39.50;13.13;;;0.20;84.90;;;;;;5002133;28;20240;-82
2023/01/25 12:23:22;;;;;;;40.22;14.32;;;0.20;85.00;;;;;;5014478;28;20050;-81
2023/01/25 12:26:01;;;;;;;46.72;17.00;;;0.20;85.20;;;;;;5006171;28;20144;-80
2023/01/25 12:28:34;;;;;;;41.67;13.93;;;0.30;85.40;;;;;;5006058;28;20050;-83
2023/01/25 12:31:05;;;;;;;39.33;11.57;;;0.30;85.20;;;;;;5005661;28;20289;-81
2023/01/25 12:33:39;;;;;;;39.00;13.90;;;0.30;85.30;;;;;;5000289;28;20055;-82
2023/01/25 12:36:12;;;;;;;40.88;13.52;;;0.30;85.00;;;;;;4979449;28;20089;-83
2023/01/25 12:38:48;;;;;;;43.03;14.25;;;0.20;85.00;;;;;;5001986;28;20050;-83
2023/01/25 12:41:27;;;;;;;42.30;14.83;;;0.20;85.10;;;;;;5016217;28;20109;-82
2023/01/25 12:44:01;;;;;;;39.97;13.50;;;0.20;85.30;;;;;;4994207;28;20278;-82
2023/01/25 12:46:31;;;;;;;41.47;13.45;;;0.20;85.20;;;;;;5049257;23;20159;-81
2023/01/25 12:49:05;;;;;;;40.05;13.57;;;0.20;85.50;;;;;;5024926;28;20143;-80
2023/01/25 12:51:35;;;;;;;43.15;14.48;;;0.20;85.50;;;;;;5033771;28;20160;-82
2023/01/25 12:54:15;;;;;;;43.07;15.63;;;0.20;85.40;;;;;;5027337;28;20185;-83
2023/01/25 12:56:53;;;;;;;51.53;19.40;;;0.20;85.50;;;;;;5002540;28;20281;-84
2023/01/25 12:59:28;;;;;;;43.55;13.90;;;0.20;85.70;;;;;;5022565;28;20046;-83
2023/01/25 13:02:00;;;;;;;44.85;15.02;;;0.20;85.60;;;;;;5006492;28;20046;-82